createdAt,value
2022-10-11T00:01:59.225Z,13.85
2022-10-11T00:04:26.021Z,15.10
2022-10-11T00:06:52.658Z,14.65
2022-10-11T00:09:19.427Z,14.00
2022-10-11T00:11:46.006Z,15.65
2022-10-11T00:14:12.703Z,14.95
2022-10-11T00:16:41.650Z,14.77
2022-10-11T00:19:08.325Z,14.40
2022-10-11T00:21:36.691Z,14.73
2022-10-11T00:24:04.416Z,14.65
2022-10-11T00:26:31.088Z,14.20
2022-10-11T00:28:57.767Z,14.43
2022-10-11T00:31:24.804Z,13.50
2022-10-11T00:33:53.767Z,14.18
2022-10-11T00:36:21.711Z,14.50
2022-10-11T00:38:48.440Z,14.20
2022-10-11T00:41:16.279Z,13.77
2022-10-11T00:43:44.410Z,14.68
2022-10-11T00:46:14.061Z,14.60
2022-10-11T00:48:55.347Z,14.95
2022-10-11T00:51:58.693Z,14.32
2022-10-11T00:56:58.711Z,13.20
2022-10-11T00:59:29.034Z,15.52
2022-10-11T01:01:55.851Z,14.68
2022-10-11T01:04:22.731Z,15.85
2022-10-11T01:06:50.610Z,15.88
2022-10-11T01:09:20.150Z,15.52
2022-10-11T01:11:48.659Z,14.50
2022-10-11T01:14:37.434Z,15.35
2022-10-11T01:17:18.913Z,14.98
2022-10-11T01:20:18.788Z,15.13
2022-10-11T01:23:07.302Z,14.73
2022-10-11T01:25:42.932Z,14.73
2022-10-11T01:28:45.068Z,14.40
2022-10-11T01:31:20.828Z,13.95
2022-10-11T01:34:02.006Z,14.95
2022-10-11T01:37:05.842Z,13.60
2022-10-11T01:39:48.555Z,13.85
2022-10-11T01:42:18.722Z,14.85
2022-10-11T01:44:48.192Z,14.07
2022-10-11T01:47:22.682Z,13.57
2022-10-11T01:49:57.728Z,13.15
2022-10-11T01:52:27.230Z,12.93
2022-10-11T01:55:09.544Z,12.82
2022-10-11T01:57:39.283Z,12.32
2022-10-11T02:00:18.308Z,13.23
2022-10-11T02:03:04.981Z,13.23
2022-10-11T02:05:43.184Z,13.52
2022-10-11T02:08:31.625Z,12.52
2022-10-11T02:11:01.162Z,13.38
2022-10-11T02:13:47.303Z,13.45
2022-10-11T02:16:19.870Z,12.25
2022-10-11T02:18:51.218Z,12.88
2022-10-11T02:21:20.808Z,13.32
2022-10-11T02:23:53.886Z,13.13
2022-10-11T02:26:23.389Z,12.50
2022-10-11T02:28:53.028Z,12.32
2022-10-11T02:31:21.722Z,12.43
2022-10-11T02:33:56.426Z,11.70
2022-10-11T02:36:36.641Z,12.15
2022-10-11T02:39:09.727Z,11.82
2022-10-11T02:41:41.010Z,11.88
2022-10-11T02:44:18.952Z,11.55
2022-10-11T02:46:47.479Z,11.85
2022-10-11T02:49:16.163Z,11.43
2022-10-11T02:51:43.003Z,11.52
2022-10-11T02:54:09.734Z,10.43
2022-10-11T02:56:36.643Z,11.52
2022-10-11T02:59:03.562Z,9.48
2022-10-11T03:01:30.611Z,10.60
2022-10-11T03:03:57.639Z,10.40
2022-10-11T03:06:26.316Z,10.02
2022-10-11T03:08:53.158Z,10.05
2022-10-11T03:11:20.283Z,11.85
2022-10-11T03:13:47.080Z,11.63
2022-10-11T03:16:14.696Z,11.35
2022-10-11T03:18:41.538Z,11.32
2022-10-11T03:21:08.180Z,10.48
2022-10-11T03:23:34.791Z,10.77
2022-10-11T03:26:04.410Z,10.60
2022-10-11T03:28:31.469Z,10.52
2022-10-11T03:30:58.139Z,10.60
2022-10-11T03:33:25.031Z,11.07
2022-10-11T03:35:53.181Z,10.93
2022-10-11T03:38:21.951Z,11.18
2022-10-11T03:40:48.619Z,10.55
2022-10-11T03:43:15.717Z,11.35
2022-10-11T03:45:42.448Z,10.77
2022-10-11T03:48:09.459Z,10.77
2022-10-11T03:50:36.707Z,10.95
2022-10-11T03:53:04.271Z,11.15
2022-10-11T03:55:31.039Z,10.55
2022-10-11T03:57:58.113Z,11.70
2022-10-11T04:00:24.903Z,11.25
2022-10-11T04:02:51.550Z,12.88
2022-10-11T04:05:18.469Z,13.13
2022-10-11T04:07:45.104Z,12.70
2022-10-11T04:10:12.030Z,11.80
2022-10-11T04:12:39.208Z,11.43
2022-10-11T04:15:06.980Z,11.80
2022-10-11T04:17:34.144Z,11.80
2022-10-11T04:20:00.859Z,11.95
2022-10-11T04:22:27.504Z,11.30
2022-10-11T04:24:54.178Z,11.38
2022-10-11T04:27:20.879Z,11.88
2022-10-11T04:29:47.531Z,11.82
2022-10-11T04:32:14.321Z,11.73
2022-10-11T04:34:41.946Z,11.52
2022-10-11T04:37:08.636Z,10.68
2022-10-11T04:39:35.515Z,11.48
2022-10-11T04:42:02.228Z,10.88
2022-10-11T04:44:28.944Z,11.48
2022-10-11T04:46:55.685Z,11.52
2022-10-11T04:49:23.306Z,10.93
2022-10-11T04:51:49.935Z,11.38
2022-10-11T04:54:16.575Z,10.65
2022-10-11T04:56:43.815Z,10.95
2022-10-11T04:59:10.826Z,11.32
2022-10-11T05:01:37.666Z,10.90
2022-10-11T05:04:04.385Z,12.13
2022-10-11T05:06:31.225Z,11.00
2022-10-11T05:08:57.812Z,11.25
2022-10-11T05:11:24.992Z,10.90
2022-10-11T05:13:51.798Z,11.73
2022-10-11T05:16:18.959Z,12.50
2022-10-11T05:18:45.619Z,13.15
2022-10-11T05:21:24.820Z,15.18
2022-10-11T05:23:52.991Z,14.85
2022-10-11T05:26:20.467Z,14.07
2022-10-11T05:28:48.106Z,12.77
2022-10-11T05:31:15.235Z,12.43
2022-10-11T05:33:42.902Z,13.00
2022-10-11T05:36:10.260Z,13.35
2022-10-11T05:38:37.148Z,11.98
2022-10-11T05:41:05.435Z,11.88
2022-10-11T05:43:32.786Z,11.70
2022-10-11T05:45:59.484Z,11.73
2022-10-11T05:48:26.841Z,11.73
2022-10-11T05:50:58.348Z,13.27
2022-10-11T05:53:24.976Z,11.50
2022-10-11T05:55:51.829Z,13.38
2022-10-11T05:58:18.804Z,12.35
2022-10-11T06:00:45.916Z,12.77
2022-10-11T06:03:14.261Z,12.63
2022-10-11T06:05:41.216Z,19.52
2022-10-11T06:08:09.886Z,15.65
2022-10-11T06:10:38.290Z,14.55
2022-10-11T06:13:05.650Z,15.25
2022-10-11T06:15:33.119Z,14.88
2022-10-11T06:17:59.846Z,15.05
2022-10-11T06:20:27.297Z,14.02
2022-10-11T06:22:54.018Z,13.05
2022-10-11T06:25:21.139Z,13.13
2022-10-11T06:27:47.793Z,13.65
2022-10-11T06:30:15.338Z,13.15
2022-10-11T06:32:41.985Z,13.48
2022-10-11T06:35:09.191Z,13.38
2022-10-11T06:37:36.057Z,12.60
2022-10-11T06:40:03.185Z,12.75
2022-10-11T06:42:29.939Z,12.93
2022-10-11T06:44:56.917Z,13.13
2022-10-11T06:47:23.625Z,13.27
2022-10-11T06:49:50.261Z,11.95
2022-10-11T06:52:16.934Z,11.98
2022-10-11T06:54:45.097Z,13.13
2022-10-11T06:57:12.619Z,12.30
2022-10-11T06:59:39.617Z,12.70
2022-10-11T07:02:06.884Z,12.73
2022-10-11T07:04:34.118Z,12.75
2022-10-11T07:07:01.356Z,12.02
2022-10-11T07:09:28.171Z,12.65
2022-10-11T07:11:54.937Z,11.63
2022-10-11T07:14:21.901Z,11.88
2022-10-11T07:16:48.549Z,11.30
2022-10-11T07:19:15.205Z,10.43
2022-10-11T07:21:41.872Z,11.57
2022-10-11T07:24:08.993Z,11.65
2022-10-11T07:26:38.496Z,11.15
2022-10-11T07:29:08.732Z,10.90
2022-10-11T07:31:38.659Z,11.13
2022-10-11T07:34:05.370Z,10.55
2022-10-11T07:36:32.248Z,9.90
2022-10-11T07:38:59.054Z,10.07
2022-10-11T07:41:25.889Z,9.23
2022-10-11T07:43:54.930Z,9.45
2022-10-11T07:46:22.525Z,9.90
2022-10-11T07:48:50.436Z,9.60
2022-10-11T07:51:21.050Z,10.57
2022-10-11T07:53:50.623Z,9.80
2022-10-11T07:56:20.685Z,10.15
2022-10-11T07:58:53.250Z,9.10
2022-10-11T08:01:21.275Z,8.38
2022-10-11T08:03:49.059Z,8.63
2022-10-11T08:06:19.282Z,8.38
2022-10-11T08:08:46.537Z,8.90
2022-10-11T08:11:24.622Z,9.30
2022-10-11T08:13:52.001Z,9.18
2022-10-11T08:16:18.684Z,9.73
2022-10-11T08:18:45.922Z,8.50
2022-10-11T08:21:15.727Z,9.00
2022-10-11T08:23:42.388Z,9.88
2022-10-11T08:26:11.297Z,8.82
2022-10-11T08:28:38.469Z,8.98
2022-10-11T08:31:05.756Z,10.07
2022-10-11T08:33:32.876Z,9.23
2022-10-11T08:36:04.930Z,9.38
2022-10-11T08:38:32.768Z,9.35
2022-10-11T08:41:00.924Z,8.80
2022-10-11T08:43:53.070Z,10.25
2022-10-11T08:46:26.436Z,10.25
2022-10-11T08:48:54.394Z,10.90
2022-10-11T08:51:27.169Z,11.10
2022-10-11T08:54:20.247Z,10.65
2022-10-11T08:56:47.393Z,10.43
2022-10-11T08:59:33.964Z,9.90
2022-10-11T09:02:26.339Z,9.02
2022-10-11T09:04:55.748Z,8.55
2022-10-11T09:07:34.554Z,8.23
2022-10-11T09:10:04.303Z,8.45
2022-10-11T09:13:31.121Z,8.35
2022-10-11T09:16:10.405Z,8.18
2022-10-11T09:19:04.493Z,9.25
2022-10-11T09:21:43.265Z,9.27
2022-10-11T09:24:19.094Z,9.73
2022-10-11T09:26:56.615Z,8.88
2022-10-11T09:29:47.837Z,8.88
2022-10-11T09:32:17.936Z,9.45
2022-10-11T09:34:44.816Z,8.80
2022-10-11T09:37:30.618Z,8.95
2022-10-11T09:40:06.777Z,8.93
2022-10-11T09:42:33.792Z,8.93
2022-10-11T09:45:01.199Z,8.07
2022-10-11T09:47:30.479Z,8.50
2022-10-11T09:50:16.793Z,8.35
2022-10-11T09:52:55.857Z,7.93
2022-10-11T09:55:50.929Z,8.38
2022-10-11T09:58:31.547Z,8.27
2022-10-11T10:01:08.014Z,7.72
2022-10-11T10:03:46.127Z,7.43
2022-10-11T10:06:27.872Z,7.20
2022-10-11T10:08:55.562Z,7.10
2022-10-11T10:11:22.714Z,6.75
2022-10-11T10:13:56.032Z,6.85
2022-10-11T10:16:34.232Z,6.20
2022-10-11T10:19:02.077Z,5.65
2022-10-11T10:21:34.140Z,5.47
2022-10-11T10:24:05.369Z,5.90
2022-10-11T10:26:32.582Z,5.28
2022-10-11T10:29:08.248Z,5.60
2022-10-11T10:35:02.682Z,5.43
2022-10-11T10:37:39.705Z,5.22
2022-10-11T10:40:14.474Z,4.70
2022-10-11T10:42:41.450Z,5.22
2022-10-11T10:45:17.434Z,5.43
2022-10-11T10:48:23.473Z,4.90
2022-10-11T10:51:00.824Z,4.85
2022-10-11T10:53:33.748Z,4.97
2022-10-11T10:56:11.218Z,5.55
2022-10-11T10:59:25.522Z,5.60
2022-10-11T11:02:39.676Z,5.47
2022-10-11T11:05:46.775Z,4.93
2022-10-11T11:08:35.006Z,6.10
2022-10-11T11:11:40.152Z,5.75
2022-10-11T11:14:07.278Z,5.82
2022-10-11T11:16:54.631Z,5.65
2022-10-11T11:19:38.442Z,5.35
2022-10-11T11:22:50.192Z,4.97
2022-10-11T11:25:22.862Z,5.10
2022-10-11T11:28:17.484Z,4.93
2022-10-11T11:30:59.522Z,5.00
2022-10-11T11:33:49.681Z,4.80
2022-10-11T11:36:35.631Z,4.72
2022-10-11T11:39:05.073Z,4.57
2022-10-11T11:41:43.585Z,4.28
2022-10-11T11:44:16.266Z,5.18
2022-10-11T11:46:51.553Z,4.68
2022-10-11T11:49:25.204Z,4.40
2022-10-11T11:51:55.813Z,4.28
2022-10-11T11:54:47.174Z,4.50
2022-10-11T11:57:49.884Z,4.38
2022-10-11T12:00:23.085Z,4.47
2022-10-11T12:03:01.910Z,4.07
2022-10-11T12:05:36.436Z,4.30
2022-10-11T12:08:26.038Z,3.90
2022-10-11T12:11:01.424Z,4.25
2022-10-11T12:13:37.112Z,4.10
2022-10-11T12:16:04.752Z,4.20
2022-10-11T12:18:35.642Z,4.20
2022-10-11T12:21:16.895Z,3.67
2022-10-11T12:23:47.084Z,4.40
2022-10-11T12:26:32.499Z,4.25
2022-10-11T12:29:07.614Z,4.00
2022-10-11T12:31:36.732Z,3.90
2022-10-11T12:34:09.713Z,3.90
2022-10-11T12:36:38.326Z,4.07
2022-10-11T12:39:19.937Z,3.08
2022-10-11T12:44:28.818Z,3.35
2022-10-11T12:46:55.458Z,3.25
2022-10-11T12:49:24.695Z,2.92
2022-10-11T12:52:01.475Z,2.60
2022-10-11T12:54:37.407Z,3.42
2022-10-11T12:57:29.224Z,3.03
2022-10-11T13:00:16.312Z,3.40
2022-10-11T13:02:43.604Z,3.88
2022-10-11T13:05:31.663Z,3.25
2022-10-11T13:08:04.424Z,4.13
2022-10-11T13:10:39.517Z,3.83
2022-10-11T13:13:15.974Z,3.63
2022-10-11T13:15:51.849Z,4.60
2022-10-11T13:18:22.844Z,4.38
2022-10-11T13:20:49.765Z,3.97
2022-10-11T13:23:25.716Z,3.75
2022-10-11T13:25:54.181Z,3.80
2022-10-11T13:28:23.637Z,4.05
2022-10-11T13:30:56.164Z,3.90
2022-10-11T13:33:26.879Z,3.88
2022-10-11T13:35:53.993Z,4.20
2022-10-11T13:38:26.731Z,3.75
2022-10-11T13:40:56.135Z,3.55
2022-10-11T13:43:27.531Z,4.22
2022-10-11T13:45:57.129Z,4.18
2022-10-11T13:48:28.166Z,3.53
2022-10-11T13:51:28.754Z,4.18
2022-10-11T13:54:07.777Z,4.00
2022-10-11T13:56:51.494Z,4.20
2022-10-11T13:59:23.777Z,4.23
2022-10-11T14:01:57.614Z,3.97
2022-10-11T14:04:29.535Z,4.15
2022-10-11T14:07:02.751Z,3.95
2022-10-11T14:09:37.041Z,3.83
2022-10-11T14:12:28.551Z,3.63
2022-10-11T14:14:55.589Z,4.47
2022-10-11T14:17:32.879Z,4.28
2022-10-11T14:20:14.451Z,3.95
2022-10-11T14:22:41.511Z,4.40
2022-10-11T14:25:08.590Z,4.60
2022-10-11T14:27:36.912Z,4.55
2022-10-11T14:30:31.845Z,5.00
2022-10-11T14:33:01.539Z,4.32
2022-10-11T14:35:31.122Z,4.82
2022-10-11T14:37:58.451Z,4.50
2022-10-11T14:40:29.888Z,4.72
2022-10-11T14:42:57.164Z,4.63
2022-10-11T14:45:24.399Z,3.95
2022-10-11T14:47:52.129Z,5.00
2022-10-11T14:50:30.417Z,4.07
2022-10-11T14:52:58.054Z,4.30
2022-10-11T14:55:25.257Z,3.88
2022-10-11T14:57:52.266Z,4.25
2022-10-11T15:00:27.677Z,4.60
2022-10-11T15:02:55.868Z,4.85
2022-10-11T15:05:28.679Z,4.80
2022-10-11T15:07:58.531Z,4.70
2022-10-11T15:10:33.733Z,4.40
2022-10-11T15:13:01.169Z,4.90
2022-10-11T15:15:32.859Z,4.50
2022-10-11T15:18:00.481Z,4.95
2022-10-11T15:20:38.395Z,5.15
2022-10-11T15:23:07.951Z,5.38
2022-10-11T15:25:37.914Z,5.28
2022-10-11T15:28:06.104Z,5.25
2022-10-11T15:30:41.075Z,5.30
2022-10-11T15:33:09.234Z,5.25
2022-10-11T15:35:35.974Z,4.63
2022-10-11T15:38:03.182Z,5.68
2022-10-11T15:40:36.047Z,4.95
2022-10-11T15:43:03.953Z,4.97
2022-10-11T15:45:31.415Z,5.93
2022-10-11T15:47:58.660Z,5.22
2022-10-11T15:50:36.769Z,5.55
2022-10-11T15:53:05.272Z,5.63
2022-10-11T15:55:35.501Z,5.50
2022-10-11T15:58:02.570Z,5.65
2022-10-11T16:00:30.663Z,5.35
2022-10-11T16:02:59.035Z,5.72
2022-10-11T16:05:28.498Z,6.10
2022-10-11T16:07:55.489Z,6.07
2022-10-11T16:10:22.638Z,5.75
2022-10-11T16:12:49.633Z,5.18
2022-10-11T16:15:17.108Z,5.13
2022-10-11T16:17:45.384Z,5.75
2022-10-11T16:20:13.669Z,5.95
2022-10-11T16:22:41.396Z,6.45
2022-10-11T16:25:08.319Z,6.00
2022-10-11T16:27:35.752Z,6.63
2022-10-11T16:30:02.952Z,6.10
2022-10-11T16:32:33.435Z,6.03
2022-10-11T16:35:00.451Z,5.90
2022-10-11T16:37:27.413Z,6.43
2022-10-11T16:39:54.284Z,6.30
2022-10-11T16:42:21.034Z,5.70
2022-10-11T16:44:47.698Z,6.95
2022-10-11T16:47:15.815Z,7.03
2022-10-11T16:49:42.918Z,7.60
2022-10-11T16:52:14.110Z,7.13
2022-10-11T16:54:47.814Z,6.70
2022-10-11T16:57:16.217Z,6.95
2022-10-11T16:59:43.394Z,6.95
2022-10-11T17:02:27.634Z,7.15
2022-10-11T17:04:58.753Z,7.22
2022-10-11T17:07:26.342Z,7.43
2022-10-11T17:09:53.279Z,7.43
2022-10-11T17:12:23.667Z,6.88
2022-10-11T17:14:51.598Z,6.53
2022-10-11T17:17:19.410Z,7.70
2022-10-11T17:19:47.782Z,7.50
2022-10-11T17:22:18.294Z,6.68
2022-10-11T17:24:47.634Z,6.25
2022-10-11T17:27:14.595Z,5.75
2022-10-11T17:29:41.584Z,5.53
2022-10-11T17:32:08.707Z,5.93
2022-10-11T17:34:35.703Z,5.97
2022-10-11T17:37:02.652Z,7.60
2022-10-11T17:39:29.496Z,7.78
2022-10-11T17:41:56.204Z,7.72
2022-10-11T17:44:23.037Z,7.22
2022-10-11T17:46:50.327Z,6.95
2022-10-11T17:49:17.047Z,7.13
2022-10-11T17:51:44.193Z,7.25
2022-10-11T17:54:13.087Z,6.57
2022-10-11T17:56:43.073Z,7.40
2022-10-11T17:59:16.898Z,7.65
2022-10-11T18:01:43.778Z,8.10
2022-10-11T18:04:16.522Z,7.35
2022-10-11T18:06:46.294Z,6.88
2022-10-11T18:09:15.304Z,7.22
2022-10-11T18:11:42.589Z,7.30
2022-10-11T18:14:10.028Z,7.07
2022-10-11T18:16:38.631Z,6.57
2022-10-11T18:19:10.084Z,8.02
2022-10-11T18:21:38.007Z,9.65
2022-10-11T18:24:12.832Z,8.50
2022-10-11T18:26:39.962Z,8.25
2022-10-11T18:29:07.503Z,8.45
2022-10-11T18:31:35.363Z,8.70
2022-10-11T18:34:04.065Z,8.40
2022-10-11T18:36:32.478Z,8.10
2022-10-11T18:39:02.431Z,7.03
2022-10-11T18:41:32.126Z,7.20
2022-10-11T18:44:02.434Z,8.93
2022-10-11T18:46:30.160Z,8.90
2022-10-11T18:48:58.360Z,8.27
2022-10-11T18:51:26.928Z,8.68
2022-10-11T18:53:55.323Z,8.50
2022-10-11T18:56:24.814Z,8.20
2022-10-11T18:58:53.662Z,8.57
2022-10-11T19:01:26.399Z,8.52
2022-10-11T19:03:56.716Z,7.97
2022-10-11T19:06:27.437Z,8.43
2022-10-11T19:09:03.870Z,8.90
2022-10-11T19:11:32.543Z,8.93
2022-10-11T19:14:02.638Z,8.15
2022-10-11T19:16:30.629Z,8.52
2022-10-11T19:18:57.476Z,8.95
2022-10-11T19:21:24.346Z,8.18
2022-10-11T19:23:51.950Z,8.70
2022-10-11T19:26:24.319Z,8.38
2022-10-11T19:28:56.707Z,8.55
2022-10-11T19:31:25.439Z,9.20
2022-10-11T19:33:52.694Z,9.65
2022-10-11T19:36:20.159Z,10.32
2022-10-11T19:38:48.757Z,10.85
2022-10-11T19:41:18.125Z,8.63
2022-10-11T19:43:46.379Z,8.88
2022-10-11T19:46:20.265Z,9.50
2022-10-11T19:48:51.570Z,9.13
2022-10-11T19:51:23.792Z,9.90
2022-10-11T19:54:00.252Z,9.48
2022-10-11T19:56:31.340Z,9.07
2022-10-11T19:58:58.390Z,10.50
2022-10-11T20:01:27.488Z,10.85
2022-10-11T20:03:56.774Z,10.02
2022-10-11T20:06:25.347Z,10.23
2022-10-11T20:09:10.335Z,10.88
2022-10-11T20:11:39.503Z,10.07
2022-10-11T20:14:06.216Z,10.25
2022-10-11T20:16:33.221Z,9.93
2022-10-11T20:19:00.312Z,10.15
2022-10-11T20:21:29.771Z,10.20
2022-10-11T20:24:02.490Z,10.40
2022-10-11T20:26:30.773Z,11.32
2022-10-11T20:28:58.265Z,10.82
2022-10-11T20:31:34.581Z,11.30
2022-10-11T20:34:15.421Z,9.18
2022-10-11T20:36:48.904Z,9.40
2022-10-11T20:39:16.437Z,9.43
2022-10-11T20:41:44.038Z,8.55
2022-10-11T20:44:13.306Z,9.60
2022-10-11T20:46:40.203Z,8.15
2022-10-11T20:49:10.394Z,8.20
2022-10-11T20:51:39.736Z,8.93
2022-10-11T20:54:06.665Z,10.07
2022-10-11T20:56:34.326Z,8.80
2022-10-11T20:59:01.927Z,8.65
2022-10-11T21:01:40.682Z,8.38
2022-10-11T21:04:10.285Z,8.70
2022-10-11T21:06:37.404Z,9.90
2022-10-11T21:09:04.413Z,8.95
2022-10-11T21:11:33.478Z,9.43
2022-10-11T21:14:03.419Z,10.15
2022-10-11T21:16:31.005Z,9.90
2022-10-11T21:18:59.494Z,9.02
2022-10-11T21:21:27.566Z,9.38
2022-10-11T21:23:59.609Z,10.38
2022-10-11T21:26:27.586Z,9.98
2022-10-11T21:28:54.915Z,9.35
2022-10-11T21:31:22.472Z,9.65
2022-10-11T21:33:49.905Z,9.10
2022-10-11T21:36:18.063Z,9.15
2022-10-11T21:38:45.036Z,9.98
2022-10-11T21:41:15.639Z,10.18
2022-10-11T21:43:42.674Z,9.52
2022-10-11T21:46:15.893Z,9.70
2022-10-11T21:48:43.246Z,10.15
2022-10-11T21:51:23.698Z,9.68
2022-10-11T21:53:51.208Z,10.13
2022-10-11T21:56:18.107Z,10.15
2022-10-11T21:58:49.346Z,9.93
2022-10-11T22:01:17.729Z,10.75
2022-10-11T22:03:45.819Z,9.38
2022-10-11T22:06:31.521Z,9.63
2022-10-11T22:08:58.311Z,10.40
2022-10-11T22:11:25.503Z,9.98
2022-10-11T22:13:52.641Z,9.82
2022-10-11T22:16:20.546Z,9.88
2022-10-11T22:18:47.469Z,9.00
2022-10-11T22:21:21.522Z,8.50
2022-10-11T22:23:50.321Z,9.73
2022-10-11T22:26:26.804Z,9.75
2022-10-11T22:28:53.557Z,9.32
2022-10-11T22:31:22.350Z,8.77
2022-10-11T22:33:53.005Z,9.63
2022-10-11T22:36:20.270Z,9.60
2022-10-11T22:38:47.324Z,9.10
2022-10-11T22:41:14.260Z,9.45
2022-10-11T22:43:41.110Z,9.10
2022-10-11T22:46:08.701Z,9.65
2022-10-11T22:48:35.508Z,9.63
2022-10-11T22:51:03.654Z,9.77
2022-10-11T22:53:30.994Z,9.60
2022-10-11T22:55:58.412Z,10.15
2022-10-11T22:58:25.654Z,10.32
2022-10-11T23:00:52.568Z,10.13
2022-10-11T23:03:20.046Z,9.10
2022-10-11T23:05:57.818Z,9.82
2022-10-11T23:08:25.466Z,9.25
2022-10-11T23:10:52.891Z,8.77
2022-10-11T23:13:20.235Z,9.82
2022-10-11T23:15:46.955Z,9.80
2022-10-11T23:18:16.531Z,9.82
2022-10-11T23:20:43.732Z,10.77
2022-10-11T23:23:10.567Z,9.35
2022-10-11T23:25:37.418Z,9.43
2022-10-11T23:28:04.511Z,10.65
2022-10-11T23:30:31.453Z,9.70
2022-10-11T23:32:58.276Z,10.30
2022-10-11T23:35:25.305Z,9.13
2022-10-11T23:37:53.707Z,10.07
2022-10-11T23:40:20.897Z,10.43
2022-10-11T23:42:47.665Z,9.52
2022-10-11T23:45:14.706Z,9.50
2022-10-11T23:47:41.356Z,9.48
2022-10-11T23:50:09.227Z,9.68
2022-10-11T23:52:36.336Z,9.32
2022-10-11T23:55:03.821Z,8.88
2022-10-11T23:57:30.406Z,9.88
2022-10-11T23:59:57.486Z,10.05
